sensor_id;sensor_type;location;lat;lon;timestamp;P1;durP1;ratioP1;P2;durP2;ratioP2
75156;SDS011;63736;50.076;8.198;2023-02-04T00:01:37;11.73;;;3.33;;
75156;SDS011;63736;50.076;8.198;2023-02-04T00:04:03;13.10;;;3.33;;
75156;SDS011;63736;50.076;8.198;2023-02-04T00:06:28;10.57;;;3.40;;
75156;SDS011;63736;50.076;8.198;2023-02-04T00:08:54;13.20;;;2.58;;
75156;SDS011;63736;50.076;8.198;2023-02-04T00:11:19;13.80;;;2.87;;
75156;SDS011;63736;50.076;8.198;2023-02-04T00:13:45;8.77;;;2.13;;
75156;SDS011;63736;50.076;8.198;2023-02-04T00:16:13;14.37;;;2.73;;
75156;SDS011;63736;50.076;8.198;2023-02-04T00:18:38;11.25;;;2.75;;
75156;SDS011;63736;50.076;8.198;2023-02-04T00:21:03;12.10;;;2.67;;
75156;SDS011;63736;50.076;8.198;2023-02-04T00:23:32;12.43;;;2.88;;
75156;SDS011;63736;50.076;8.198;2023-02-04T00:25:57;13.40;;;2.30;;
75156;SDS011;63736;50.076;8.198;2023-02-04T00:28:22;25.63;;;8.13;;
75156;SDS011;63736;50.076;8.198;2023-02-04T00:34:22;35.67;;;13.23;;
75156;SDS011;63736;50.076;8.198;2023-02-04T00:36:47;15.48;;;4.65;;
75156;SDS011;63736;50.076;8.198;2023-02-04T00:39:31;12.20;;;3.63;;
75156;SDS011;63736;50.076;8.198;2023-02-04T00:41:57;16.40;;;3.15;;
75156;SDS011;63736;50.076;8.198;2023-02-04T00:44:22;12.60;;;2.97;;
75156;SDS011;63736;50.076;8.198;2023-02-04T00:46:47;12.10;;;2.33;;
75156;SDS011;63736;50.076;8.198;2023-02-04T00:49:12;17.53;;;3.63;;
75156;SDS011;63736;50.076;8.198;2023-02-04T00:51:38;10.10;;;2.63;;
75156;SDS011;63736;50.076;8.198;2023-02-04T00:54:05;10.45;;;2.55;;
75156;SDS011;63736;50.076;8.198;2023-02-04T00:56:31;11.98;;;2.58;;
75156;SDS011;63736;50.076;8.198;2023-02-04T00:59:06;11.60;;;2.53;;
75156;SDS011;63736;50.076;8.198;2023-02-04T01:01:32;10.93;;;2.07;;
75156;SDS011;63736;50.076;8.198;2023-02-04T01:03:58;12.50;;;2.60;;
75156;SDS011;63736;50.076;8.198;2023-02-04T01:06:23;13.63;;;2.90;;
75156;SDS011;63736;50.076;8.198;2023-02-04T01:08:49;9.87;;;2.30;;
75156;SDS011;63736;50.076;8.198;2023-02-04T01:11:14;12.73;;;2.47;;
75156;SDS011;63736;50.076;8.198;2023-02-04T01:13:40;15.90;;;3.13;;
75156;SDS011;63736;50.076;8.198;2023-02-04T01:16:05;11.52;;;2.75;;
75156;SDS011;63736;50.076;8.198;2023-02-04T01:18:33;16.83;;;2.73;;
75156;SDS011;63736;50.076;8.198;2023-02-04T01:20:59;17.57;;;2.90;;
75156;SDS011;63736;50.076;8.198;2023-02-04T01:23:24;17.70;;;3.47;;
75156;SDS011;63736;50.076;8.198;2023-02-04T01:25:49;15.83;;;2.90;;
75156;SDS011;63736;50.076;8.198;2023-02-04T01:28:15;12.47;;;3.10;;
75156;SDS011;63736;50.076;8.198;2023-02-04T01:30:40;13.47;;;3.23;;
75156;SDS011;63736;50.076;8.198;2023-02-04T01:33:05;13.37;;;3.13;;
75156;SDS011;63736;50.076;8.198;2023-02-04T01:35:31;13.67;;;2.73;;
75156;SDS011;63736;50.076;8.198;2023-02-04T01:37:56;15.77;;;3.40;;
75156;SDS011;63736;50.076;8.198;2023-02-04T01:40:21;16.50;;;3.40;;
75156;SDS011;63736;50.076;8.198;2023-02-04T01:42:47;13.17;;;3.10;;
75156;SDS011;63736;50.076;8.198;2023-02-04T01:45:12;13.63;;;3.10;;
75156;SDS011;63736;50.076;8.198;2023-02-04T01:47:38;17.73;;;3.43;;
75156;SDS011;63736;50.076;8.198;2023-02-04T01:50:09;17.10;;;3.08;;
75156;SDS011;63736;50.076;8.198;2023-02-04T01:52:37;14.68;;;3.97;;
75156;SDS011;63736;50.076;8.198;2023-02-04T01:55:10;14.82;;;3.05;;
75156;SDS011;63736;50.076;8.198;2023-02-04T01:57:39;12.40;;;3.10;;
75156;SDS011;63736;50.076;8.198;2023-02-04T02:00:05;14.83;;;3.23;;
75156;SDS011;63736;50.076;8.198;2023-02-04T02:02:45;14.95;;;3.47;;
75156;SDS011;63736;50.076;8.198;2023-02-04T02:05:15;13.65;;;3.20;;
75156;SDS011;63736;50.076;8.198;2023-02-04T02:07:50;10.77;;;3.30;;
75156;SDS011;63736;50.076;8.198;2023-02-04T02:10:17;12.03;;;3.40;;
75156;SDS011;63736;50.076;8.198;2023-02-04T02:16:05;14.30;;;4.03;;
75156;SDS011;63736;50.076;8.198;2023-02-04T02:18:31;14.97;;;3.43;;
75156;SDS011;63736;50.076;8.198;2023-02-04T02:20:56;15.63;;;3.93;;
75156;SDS011;63736;50.076;8.198;2023-02-04T02:23:26;22.67;;;3.75;;
75156;SDS011;63736;50.076;8.198;2023-02-04T02:26:14;13.77;;;3.83;;
75156;SDS011;63736;50.076;8.198;2023-02-04T02:28:40;16.98;;;4.18;;
75156;SDS011;63736;50.076;8.198;2023-02-04T02:31:06;14.02;;;3.00;;
75156;SDS011;63736;50.076;8.198;2023-02-04T02:33:32;10.67;;;3.00;;
75156;SDS011;63736;50.076;8.198;2023-02-04T02:35:58;16.23;;;4.20;;
75156;SDS011;63736;50.076;8.198;2023-02-04T02:38:23;14.18;;;3.80;;
75156;SDS011;63736;50.076;8.198;2023-02-04T02:40:49;15.20;;;3.80;;
75156;SDS011;63736;50.076;8.198;2023-02-04T02:43:17;13.88;;;2.97;;
75156;SDS011;63736;50.076;8.198;2023-02-04T02:45:45;15.10;;;3.67;;
75156;SDS011;63736;50.076;8.198;2023-02-04T02:48:11;14.25;;;4.22;;
75156;SDS011;63736;50.076;8.198;2023-02-04T02:50:37;15.10;;;3.47;;
75156;SDS011;63736;50.076;8.198;2023-02-04T02:53:04;14.18;;;3.83;;
75156;SDS011;63736;50.076;8.198;2023-02-04T02:55:34;14.82;;;4.57;;
75156;SDS011;63736;50.076;8.198;2023-02-04T02:58:00;18.37;;;5.70;;
75156;SDS011;63736;50.076;8.198;2023-02-04T03:00:26;15.37;;;4.47;;
75156;SDS011;63736;50.076;8.198;2023-02-04T03:02:57;16.38;;;5.15;;
75156;SDS011;63736;50.076;8.198;2023-02-04T03:05:29;21.17;;;5.27;;
75156;SDS011;63736;50.076;8.198;2023-02-04T03:07:59;17.73;;;4.78;;
75156;SDS011;63736;50.076;8.198;2023-02-04T03:10:25;13.68;;;4.70;;
75156;SDS011;63736;50.076;8.198;2023-02-04T03:12:50;16.70;;;4.70;;
75156;SDS011;63736;50.076;8.198;2023-02-04T03:15:16;16.73;;;4.77;;
75156;SDS011;63736;50.076;8.198;2023-02-04T03:17:41;14.63;;;4.90;;
75156;SDS011;63736;50.076;8.198;2023-02-04T03:20:08;13.97;;;5.27;;
75156;SDS011;63736;50.076;8.198;2023-02-04T03:22:34;19.77;;;5.28;;
75156;SDS011;63736;50.076;8.198;2023-02-04T03:24:59;20.90;;;5.90;;
75156;SDS011;63736;50.076;8.198;2023-02-04T03:27:25;17.02;;;5.68;;
75156;SDS011;63736;50.076;8.198;2023-02-04T03:29:50;14.87;;;4.50;;
75156;SDS011;63736;50.076;8.198;2023-02-04T03:32:15;16.33;;;4.73;;
75156;SDS011;63736;50.076;8.198;2023-02-04T03:34:41;18.23;;;4.47;;
75156;SDS011;63736;50.076;8.198;2023-02-04T03:37:06;18.25;;;4.70;;
75156;SDS011;63736;50.076;8.198;2023-02-04T03:39:32;16.10;;;5.17;;
75156;SDS011;63736;50.076;8.198;2023-02-04T03:41:58;16.23;;;4.40;;
75156;SDS011;63736;50.076;8.198;2023-02-04T03:44:23;14.13;;;4.30;;
75156;SDS011;63736;50.076;8.198;2023-02-04T03:46:51;14.90;;;4.70;;
75156;SDS011;63736;50.076;8.198;2023-02-04T03:49:19;12.90;;;3.58;;
75156;SDS011;63736;50.076;8.198;2023-02-04T03:51:45;15.43;;;5.38;;
75156;SDS011;63736;50.076;8.198;2023-02-04T03:54:10;17.17;;;4.33;;
75156;SDS011;63736;50.076;8.198;2023-02-04T03:56:35;12.90;;;4.17;;
75156;SDS011;63736;50.076;8.198;2023-02-04T03:59:00;14.53;;;3.80;;
75156;SDS011;63736;50.076;8.198;2023-02-04T04:01:29;13.23;;;4.10;;
75156;SDS011;63736;50.076;8.198;2023-02-04T04:03:54;13.63;;;5.35;;
75156;SDS011;63736;50.076;8.198;2023-02-04T04:06:19;16.50;;;3.40;;
75156;SDS011;63736;50.076;8.198;2023-02-04T04:08:45;19.47;;;4.63;;
75156;SDS011;63736;50.076;8.198;2023-02-04T04:11:10;16.63;;;4.53;;
75156;SDS011;63736;50.076;8.198;2023-02-04T04:13:35;13.52;;;3.72;;
75156;SDS011;63736;50.076;8.198;2023-02-04T04:16:01;17.63;;;3.90;;
75156;SDS011;63736;50.076;8.198;2023-02-04T04:18:27;13.57;;;3.53;;
75156;SDS011;63736;50.076;8.198;2023-02-04T04:20:53;16.15;;;4.25;;
75156;SDS011;63736;50.076;8.198;2023-02-04T04:23:18;17.07;;;4.17;;
75156;SDS011;63736;50.076;8.198;2023-02-04T04:25:43;12.97;;;4.23;;
75156;SDS011;63736;50.076;8.198;2023-02-04T04:28:08;20.23;;;5.47;;
75156;SDS011;63736;50.076;8.198;2023-02-04T04:30:34;16.43;;;4.90;;
75156;SDS011;63736;50.076;8.198;2023-02-04T04:32:59;15.93;;;4.00;;
75156;SDS011;63736;50.076;8.198;2023-02-04T04:35:24;16.03;;;4.43;;
75156;SDS011;63736;50.076;8.198;2023-02-04T04:37:50;19.30;;;4.90;;
75156;SDS011;63736;50.076;8.198;2023-02-04T04:40:15;35.30;;;19.40;;
75156;SDS011;63736;50.076;8.198;2023-02-04T04:42:40;59.03;;;35.53;;
75156;SDS011;63736;50.076;8.198;2023-02-04T04:45:06;70.73;;;39.97;;
75156;SDS011;63736;50.076;8.198;2023-02-04T04:47:33;48.17;;;27.80;;
75156;SDS011;63736;50.076;8.198;2023-02-04T04:49:59;34.43;;;20.30;;
75156;SDS011;63736;50.076;8.198;2023-02-04T04:52:24;39.83;;;23.97;;
75156;SDS011;63736;50.076;8.198;2023-02-04T04:54:49;27.07;;;19.67;;
75156;SDS011;63736;50.076;8.198;2023-02-04T04:57:14;28.00;;;14.20;;
75156;SDS011;63736;50.076;8.198;2023-02-04T04:59:40;20.47;;;12.10;;
75156;SDS011;63736;50.076;8.198;2023-02-04T05:02:05;22.77;;;11.03;;
75156;SDS011;63736;50.076;8.198;2023-02-04T05:04:30;21.57;;;9.20;;
75156;SDS011;63736;50.076;8.198;2023-02-04T05:06:55;25.10;;;14.47;;
75156;SDS011;63736;50.076;8.198;2023-02-04T05:09:21;28.10;;;16.93;;
75156;SDS011;63736;50.076;8.198;2023-02-04T05:11:46;23.20;;;13.53;;
75156;SDS011;63736;50.076;8.198;2023-02-04T05:14:11;25.23;;;13.43;;
75156;SDS011;63736;50.076;8.198;2023-02-04T05:16:37;14.50;;;4.10;;
75156;SDS011;63736;50.076;8.198;2023-02-04T05:19:02;15.17;;;4.63;;
75156;SDS011;63736;50.076;8.198;2023-02-04T05:21:27;28.20;;;5.23;;
75156;SDS011;63736;50.076;8.198;2023-02-04T05:23:52;20.27;;;5.00;;
75156;SDS011;63736;50.076;8.198;2023-02-04T05:26:18;19.00;;;5.17;;
75156;SDS011;63736;50.076;8.198;2023-02-04T05:28:43;17.27;;;5.87;;
75156;SDS011;63736;50.076;8.198;2023-02-04T05:31:08;15.93;;;3.97;;
75156;SDS011;63736;50.076;8.198;2023-02-04T05:33:34;22.23;;;4.63;;
75156;SDS011;63736;50.076;8.198;2023-02-04T05:35:59;19.03;;;4.03;;
75156;SDS011;63736;50.076;8.198;2023-02-04T05:38:24;16.20;;;3.53;;
75156;SDS011;63736;50.076;8.198;2023-02-04T05:40:49;20.77;;;3.80;;
75156;SDS011;63736;50.076;8.198;2023-02-04T05:43:15;21.57;;;3.80;;
75156;SDS011;63736;50.076;8.198;2023-02-04T05:45:40;18.00;;;4.30;;
75156;SDS011;63736;50.076;8.198;2023-02-04T05:48:05;19.17;;;4.37;;
75156;SDS011;63736;50.076;8.198;2023-02-04T05:50:31;15.97;;;3.23;;
75156;SDS011;63736;50.076;8.198;2023-02-04T05:52:56;18.37;;;4.03;;
75156;SDS011;63736;50.076;8.198;2023-02-04T05:55:21;15.53;;;3.83;;
75156;SDS011;63736;50.076;8.198;2023-02-04T05:57:46;15.00;;;3.07;;
75156;SDS011;63736;50.076;8.198;2023-02-04T06:00:12;15.17;;;3.43;;
75156;SDS011;63736;50.076;8.198;2023-02-04T06:02:38;16.10;;;3.72;;
75156;SDS011;63736;50.076;8.198;2023-02-04T06:05:03;19.07;;;3.83;;
75156;SDS011;63736;50.076;8.198;2023-02-04T06:07:29;15.00;;;3.72;;
75156;SDS011;63736;50.076;8.198;2023-02-04T06:09:54;15.53;;;3.80;;
75156;SDS011;63736;50.076;8.198;2023-02-04T06:12:19;12.07;;;3.30;;
75156;SDS011;63736;50.076;8.198;2023-02-04T06:14:45;17.90;;;3.90;;
75156;SDS011;63736;50.076;8.198;2023-02-04T06:17:10;16.47;;;3.50;;
75156;SDS011;63736;50.076;8.198;2023-02-04T06:19:35;16.33;;;3.37;;
75156;SDS011;63736;50.076;8.198;2023-02-04T06:22:01;18.13;;;3.50;;
75156;SDS011;63736;50.076;8.198;2023-02-04T06:24:26;16.67;;;3.93;;
75156;SDS011;63736;50.076;8.198;2023-02-04T06:26:51;12.97;;;3.00;;
75156;SDS011;63736;50.076;8.198;2023-02-04T06:29:16;13.40;;;3.83;;
75156;SDS011;63736;50.076;8.198;2023-02-04T06:31:43;12.23;;;3.03;;
75156;SDS011;63736;50.076;8.198;2023-02-04T06:34:08;17.15;;;3.10;;
75156;SDS011;63736;50.076;8.198;2023-02-04T06:36:34;20.13;;;4.33;;
75156;SDS011;63736;50.076;8.198;2023-02-04T06:38:59;13.97;;;4.07;;
75156;SDS011;63736;50.076;8.198;2023-02-04T06:41:24;16.43;;;3.33;;
75156;SDS011;63736;50.076;8.198;2023-02-04T06:43:49;14.97;;;3.60;;
75156;SDS011;63736;50.076;8.198;2023-02-04T06:46:15;14.03;;;2.83;;
75156;SDS011;63736;50.076;8.198;2023-02-04T06:48:40;9.90;;;2.73;;
75156;SDS011;63736;50.076;8.198;2023-02-04T06:51:06;10.83;;;3.13;;
75156;SDS011;63736;50.076;8.198;2023-02-04T06:53:31;15.23;;;4.17;;
75156;SDS011;63736;50.076;8.198;2023-02-04T06:55:56;14.50;;;3.57;;
75156;SDS011;63736;50.076;8.198;2023-02-04T06:58:22;15.52;;;3.42;;
75156;SDS011;63736;50.076;8.198;2023-02-04T07:00:47;16.60;;;3.03;;
75156;SDS011;63736;50.076;8.198;2023-02-04T07:03:12;19.43;;;3.87;;
75156;SDS011;63736;50.076;8.198;2023-02-04T07:05:38;19.20;;;3.53;;
75156;SDS011;63736;50.076;8.198;2023-02-04T07:08:03;14.97;;;3.40;;
75156;SDS011;63736;50.076;8.198;2023-02-04T07:10:28;13.77;;;3.50;;
75156;SDS011;63736;50.076;8.198;2023-02-04T07:12:54;12.97;;;3.00;;
75156;SDS011;63736;50.076;8.198;2023-02-04T07:15:19;10.57;;;2.93;;
75156;SDS011;63736;50.076;8.198;2023-02-04T07:17:44;20.70;;;3.60;;
75156;SDS011;63736;50.076;8.198;2023-02-04T07:20:10;22.07;;;3.53;;
75156;SDS011;63736;50.076;8.198;2023-02-04T07:22:35;11.77;;;2.78;;
75156;SDS011;63736;50.076;8.198;2023-02-04T07:25:01;17.00;;;2.97;;
75156;SDS011;63736;50.076;8.198;2023-02-04T07:27:26;15.70;;;3.13;;
75156;SDS011;63736;50.076;8.198;2023-02-04T07:29:51;18.03;;;3.93;;
75156;SDS011;63736;50.076;8.198;2023-02-04T07:32:17;16.20;;;3.43;;
75156;SDS011;63736;50.076;8.198;2023-02-04T07:34:45;18.77;;;3.23;;
75156;SDS011;63736;50.076;8.198;2023-02-04T07:37:12;18.10;;;3.72;;
75156;SDS011;63736;50.076;8.198;2023-02-04T07:39:39;16.60;;;3.75;;
75156;SDS011;63736;50.076;8.198;2023-02-04T07:42:04;17.47;;;4.27;;
75156;SDS011;63736;50.076;8.198;2023-02-04T07:44:29;18.37;;;3.13;;
75156;SDS011;63736;50.076;8.198;2023-02-04T07:46:54;16.30;;;4.00;;
75156;SDS011;63736;50.076;8.198;2023-02-04T07:49:20;21.52;;;3.58;;
75156;SDS011;63736;50.076;8.198;2023-02-04T07:51:46;17.90;;;3.17;;
75156;SDS011;63736;50.076;8.198;2023-02-04T07:54:11;13.47;;;3.83;;
75156;SDS011;63736;50.076;8.198;2023-02-04T07:56:36;22.33;;;4.17;;
75156;SDS011;63736;50.076;8.198;2023-02-04T07:59:02;12.43;;;3.78;;
75156;SDS011;63736;50.076;8.198;2023-02-04T08:01:27;19.47;;;4.77;;
75156;SDS011;63736;50.076;8.198;2023-02-04T08:03:52;21.83;;;4.37;;
75156;SDS011;63736;50.076;8.198;2023-02-04T08:06:18;26.43;;;3.90;;
75156;SDS011;63736;50.076;8.198;2023-02-04T08:08:43;16.90;;;3.50;;
75156;SDS011;63736;50.076;8.198;2023-02-04T08:11:08;13.53;;;3.60;;
75156;SDS011;63736;50.076;8.198;2023-02-04T08:13:34;18.67;;;4.28;;
75156;SDS011;63736;50.076;8.198;2023-02-04T08:15:59;20.53;;;4.53;;
75156;SDS011;63736;50.076;8.198;2023-02-04T08:18:24;18.77;;;3.10;;
75156;SDS011;63736;50.076;8.198;2023-02-04T08:20:50;13.77;;;3.07;;
75156;SDS011;63736;50.076;8.198;2023-02-04T08:23:15;20.38;;;4.13;;
75156;SDS011;63736;50.076;8.198;2023-02-04T08:25:41;18.00;;;4.30;;
75156;SDS011;63736;50.076;8.198;2023-02-04T08:28:06;14.30;;;3.53;;
75156;SDS011;63736;50.076;8.198;2023-02-04T08:30:31;18.43;;;4.50;;
75156;SDS011;63736;50.076;8.198;2023-02-04T08:32:57;15.30;;;4.47;;
75156;SDS011;63736;50.076;8.198;2023-02-04T08:35:22;21.10;;;3.97;;
75156;SDS011;63736;50.076;8.198;2023-02-04T08:37:47;20.90;;;3.80;;
75156;SDS011;63736;50.076;8.198;2023-02-04T08:40:18;17.30;;;4.25;;
75156;SDS011;63736;50.076;8.198;2023-02-04T08:42:43;19.57;;;4.77;;
75156;SDS011;63736;50.076;8.198;2023-02-04T08:45:09;21.10;;;3.97;;
75156;SDS011;63736;50.076;8.198;2023-02-04T08:47:36;23.20;;;4.50;;
75156;SDS011;63736;50.076;8.198;2023-02-04T08:50:02;21.67;;;4.17;;
75156;SDS011;63736;50.076;8.198;2023-02-04T08:52:27;20.17;;;4.10;;
75156;SDS011;63736;50.076;8.198;2023-02-04T08:54:56;21.17;;;4.40;;
75156;SDS011;63736;50.076;8.198;2023-02-04T08:57:24;19.85;;;4.13;;
75156;SDS011;63736;50.076;8.198;2023-02-04T08:59:49;24.27;;;4.27;;
75156;SDS011;63736;50.076;8.198;2023-02-04T09:02:17;15.80;;;3.53;;
75156;SDS011;63736;50.076;8.198;2023-02-04T09:04:43;21.90;;;5.07;;
75156;SDS011;63736;50.076;8.198;2023-02-04T09:07:10;26.97;;;7.20;;
75156;SDS011;63736;50.076;8.198;2023-02-04T09:09:36;16.63;;;3.90;;
75156;SDS011;63736;50.076;8.198;2023-02-04T09:12:01;17.83;;;3.90;;
75156;SDS011;63736;50.076;8.198;2023-02-04T09:14:27;15.83;;;4.17;;
75156;SDS011;63736;50.076;8.198;2023-02-04T09:16:52;22.00;;;4.50;;
75156;SDS011;63736;50.076;8.198;2023-02-04T09:19:18;26.47;;;4.70;;
75156;SDS011;63736;50.076;8.198;2023-02-04T09:21:51;22.92;;;3.65;;
75156;SDS011;63736;50.076;8.198;2023-02-04T09:24:17;18.47;;;3.67;;
75156;SDS011;63736;50.076;8.198;2023-02-04T09:26:42;20.92;;;8.88;;
75156;SDS011;63736;50.076;8.198;2023-02-04T09:29:07;23.90;;;5.63;;
75156;SDS011;63736;50.076;8.198;2023-02-04T09:31:33;18.83;;;4.00;;
75156;SDS011;63736;50.076;8.198;2023-02-04T09:33:58;19.60;;;5.53;;
75156;SDS011;63736;50.076;8.198;2023-02-04T09:36:24;15.93;;;4.67;;
75156;SDS011;63736;50.076;8.198;2023-02-04T09:38:52;18.88;;;4.55;;
75156;SDS011;63736;50.076;8.198;2023-02-04T09:41:17;16.30;;;4.15;;
75156;SDS011;63736;50.076;8.198;2023-02-04T09:43:43;17.63;;;3.93;;
75156;SDS011;63736;50.076;8.198;2023-02-04T09:46:18;24.42;;;5.20;;
75156;SDS011;63736;50.076;8.198;2023-02-04T09:48:48;21.90;;;6.10;;
75156;SDS011;63736;50.076;8.198;2023-02-04T09:51:16;18.42;;;4.68;;
75156;SDS011;63736;50.076;8.198;2023-02-04T09:53:44;20.83;;;5.10;;
75156;SDS011;63736;50.076;8.198;2023-02-04T09:56:11;15.02;;;3.97;;
75156;SDS011;63736;50.076;8.198;2023-02-04T09:58:38;20.35;;;4.20;;
75156;SDS011;63736;50.076;8.198;2023-02-04T10:01:09;19.75;;;4.05;;
75156;SDS011;63736;50.076;8.198;2023-02-04T10:03:39;18.95;;;3.53;;
75156;SDS011;63736;50.076;8.198;2023-02-04T10:06:11;18.37;;;3.23;;
75156;SDS011;63736;50.076;8.198;2023-02-04T10:08:46;13.77;;;3.38;;
75156;SDS011;63736;50.076;8.198;2023-02-04T10:11:14;18.23;;;3.50;;
75156;SDS011;63736;50.076;8.198;2023-02-04T10:13:42;21.70;;;3.88;;
75156;SDS011;63736;50.076;8.198;2023-02-04T10:16:13;18.05;;;3.75;;
75156;SDS011;63736;50.076;8.198;2023-02-04T10:18:41;24.30;;;4.83;;
75156;SDS011;63736;50.076;8.198;2023-02-04T10:21:17;17.05;;;3.40;;
75156;SDS011;63736;50.076;8.198;2023-02-04T10:23:47;17.63;;;3.75;;
75156;SDS011;63736;50.076;8.198;2023-02-04T10:26:15;20.02;;;3.75;;
75156;SDS011;63736;50.076;8.198;2023-02-04T10:28:41;12.87;;;3.30;;
75156;SDS011;63736;50.076;8.198;2023-02-04T10:31:25;13.77;;;3.70;;
75156;SDS011;63736;50.076;8.198;2023-02-04T10:36:28;31.05;;;15.93;;
75156;SDS011;63736;50.076;8.198;2023-02-04T10:39:04;53.23;;;31.83;;
75156;SDS011;63736;50.076;8.198;2023-02-04T10:41:35;51.88;;;31.30;;
75156;SDS011;63736;50.076;8.198;2023-02-04T10:44:08;49.37;;;28.70;;
75156;SDS011;63736;50.076;8.198;2023-02-04T10:46:35;39.80;;;23.75;;
75156;SDS011;63736;50.076;8.198;2023-02-04T10:49:04;47.83;;;30.30;;
75156;SDS011;63736;50.076;8.198;2023-02-04T10:51:40;65.88;;;39.10;;
75156;SDS011;63736;50.076;8.198;2023-02-04T10:54:07;505.50;;;149.17;;
75156;SDS011;63736;50.076;8.198;2023-02-04T10:57:11;522.35;;;152.20;;
75156;SDS011;63736;50.076;8.198;2023-02-04T10:59:42;498.38;;;145.45;;
75156;SDS011;63736;50.076;8.198;2023-02-04T11:02:30;498.65;;;144.73;;
75156;SDS011;63736;50.076;8.198;2023-02-04T11:05:10;495.75;;;144.77;;
75156;SDS011;63736;50.076;8.198;2023-02-04T11:07:40;491.53;;;143.33;;
75156;SDS011;63736;50.076;8.198;2023-02-04T11:10:09;488.60;;;140.60;;
75156;SDS011;63736;50.076;8.198;2023-02-04T11:18:10;475.00;;;136.67;;
75156;SDS011;63736;50.076;8.198;2023-02-04T11:20:45;486.58;;;139.27;;
75156;SDS011;63736;50.076;8.198;2023-02-04T11:23:15;508.90;;;145.25;;
75156;SDS011;63736;50.076;8.198;2023-02-04T11:25:59;494.30;;;141.65;;
75156;SDS011;63736;50.076;8.198;2023-02-04T11:28:38;477.27;;;137.07;;
75156;SDS011;63736;50.076;8.198;2023-02-04T11:34:08;457.20;;;131.33;;
75156;SDS011;63736;50.076;8.198;2023-02-04T11:39:26;429.30;;;125.70;;
75156;SDS011;63736;50.076;8.198;2023-02-04T11:41:57;404.27;;;118.97;;
75156;SDS011;63736;50.076;8.198;2023-02-04T11:44:23;392.75;;;115.50;;
75156;SDS011;63736;50.076;8.198;2023-02-04T11:46:50;380.10;;;113.07;;
75156;SDS011;63736;50.076;8.198;2023-02-04T11:49:19;372.10;;;112.28;;
75156;SDS011;63736;50.076;8.198;2023-02-04T11:51:45;364.20;;;109.53;;
75156;SDS011;63736;50.076;8.198;2023-02-04T11:54:11;357.27;;;108.70;;
75156;SDS011;63736;50.076;8.198;2023-02-04T11:56:40;347.02;;;105.90;;
75156;SDS011;63736;50.076;8.198;2023-02-04T11:59:05;342.83;;;104.00;;
75156;SDS011;63736;50.076;8.198;2023-02-04T12:01:34;338.05;;;103.85;;
75156;SDS011;63736;50.076;8.198;2023-02-04T12:04:01;327.17;;;101.07;;
75156;SDS011;63736;50.076;8.198;2023-02-04T12:06:32;322.73;;;100.32;;
75156;SDS011;63736;50.076;8.198;2023-02-04T12:11:49;307.40;;;96.43;;
75156;SDS011;63736;50.076;8.198;2023-02-04T12:14:19;301.00;;;94.60;;
75156;SDS011;63736;50.076;8.198;2023-02-04T12:16:46;286.02;;;91.55;;
75156;SDS011;63736;50.076;8.198;2023-02-04T12:19:15;277.50;;;89.30;;
75156;SDS011;63736;50.076;8.198;2023-02-04T12:21:43;273.67;;;88.45;;
75156;SDS011;63736;50.076;8.198;2023-02-04T12:24:09;276.27;;;91.10;;
75156;SDS011;63736;50.076;8.198;2023-02-04T12:26:34;269.77;;;87.93;;
75156;SDS011;63736;50.076;8.198;2023-02-04T12:28:59;264.03;;;86.33;;
75156;SDS011;63736;50.076;8.198;2023-02-04T12:31:30;263.33;;;84.72;;
75156;SDS011;63736;50.076;8.198;2023-02-04T12:33:57;254.67;;;83.77;;
75156;SDS011;63736;50.076;8.198;2023-02-04T12:36:23;248.07;;;82.55;;
75156;SDS011;63736;50.076;8.198;2023-02-04T12:38:54;242.98;;;81.45;;
75156;SDS011;63736;50.076;8.198;2023-02-04T12:41:22;238.48;;;81.00;;
75156;SDS011;63736;50.076;8.198;2023-02-04T12:43:48;230.97;;;77.93;;
75156;SDS011;63736;50.076;8.198;2023-02-04T12:46:14;227.65;;;77.13;;
75156;SDS011;63736;50.076;8.198;2023-02-04T12:48:40;239.13;;;81.13;;
75156;SDS011;63736;50.076;8.198;2023-02-04T12:51:06;290.47;;;92.40;;
75156;SDS011;63736;50.076;8.198;2023-02-04T12:53:31;208.80;;;73.25;;
75156;SDS011;63736;50.076;8.198;2023-02-04T12:55:57;218.23;;;74.83;;
75156;SDS011;63736;50.076;8.198;2023-02-04T12:58:22;204.10;;;71.47;;
75156;SDS011;63736;50.076;8.198;2023-02-04T13:00:47;214.03;;;73.23;;
75156;SDS011;63736;50.076;8.198;2023-02-04T13:03:12;204.07;;;71.50;;
75156;SDS011;63736;50.076;8.198;2023-02-04T13:05:38;199.23;;;70.53;;
75156;SDS011;63736;50.076;8.198;2023-02-04T13:08:03;190.80;;;68.83;;
75156;SDS011;63736;50.076;8.198;2023-02-04T13:10:34;187.90;;;67.38;;
75156;SDS011;63736;50.076;8.198;2023-02-04T13:12:59;202.50;;;72.50;;
75156;SDS011;63736;50.076;8.198;2023-02-04T13:15:25;191.00;;;69.03;;
75156;SDS011;63736;50.076;8.198;2023-02-04T13:17:51;210.82;;;72.78;;
75156;SDS011;63736;50.076;8.198;2023-02-04T13:20:17;202.43;;;70.43;;
75156;SDS011;63736;50.076;8.198;2023-02-04T13:22:42;186.80;;;68.70;;
75156;SDS011;63736;50.076;8.198;2023-02-04T13:25:08;175.23;;;65.70;;
75156;SDS011;63736;50.076;8.198;2023-02-04T13:27:35;164.60;;;63.17;;
75156;SDS011;63736;50.076;8.198;2023-02-04T13:30:01;156.98;;;61.80;;
75156;SDS011;63736;50.076;8.198;2023-02-04T13:32:27;161.60;;;62.57;;
75156;SDS011;63736;50.076;8.198;2023-02-04T13:34:52;150.67;;;60.83;;
75156;SDS011;63736;50.076;8.198;2023-02-04T13:37:26;144.02;;;58.70;;
75156;SDS011;63736;50.076;8.198;2023-02-04T13:39:52;131.63;;;56.90;;
75156;SDS011;63736;50.076;8.198;2023-02-04T13:42:17;129.07;;;56.47;;
75156;SDS011;63736;50.076;8.198;2023-02-04T13:44:42;127.97;;;56.00;;
75156;SDS011;63736;50.076;8.198;2023-02-04T13:47:17;120.23;;;54.57;;
75156;SDS011;63736;50.076;8.198;2023-02-04T13:49:42;119.15;;;53.30;;
75156;SDS011;63736;50.076;8.198;2023-02-04T13:52:07;112.90;;;52.73;;
75156;SDS011;63736;50.076;8.198;2023-02-04T13:54:32;112.43;;;53.73;;
75156;SDS011;63736;50.076;8.198;2023-02-04T13:56:59;106.65;;;51.17;;
75156;SDS011;63736;50.076;8.198;2023-02-04T13:59:24;106.43;;;52.43;;
75156;SDS011;63736;50.076;8.198;2023-02-04T14:01:49;104.40;;;51.10;;
75156;SDS011;63736;50.076;8.198;2023-02-04T14:04:14;98.20;;;49.03;;
75156;SDS011;63736;50.076;8.198;2023-02-04T14:06:40;100.23;;;48.57;;
75156;SDS011;63736;50.076;8.198;2023-02-04T14:09:08;91.90;;;48.17;;
75156;SDS011;63736;50.076;8.198;2023-02-04T14:11:35;92.88;;;48.05;;
75156;SDS011;63736;50.076;8.198;2023-02-04T14:14:00;96.23;;;49.07;;
75156;SDS011;63736;50.076;8.198;2023-02-04T14:16:25;94.70;;;48.53;;
75156;SDS011;63736;50.076;8.198;2023-02-04T14:18:51;100.57;;;49.13;;
75156;SDS011;63736;50.076;8.198;2023-02-04T14:21:16;123.32;;;55.75;;
75156;SDS011;63736;50.076;8.198;2023-02-04T14:23:41;139.67;;;59.07;;
75156;SDS011;63736;50.076;8.198;2023-02-04T14:26:07;125.13;;;55.23;;
75156;SDS011;63736;50.076;8.198;2023-02-04T14:28:33;123.90;;;54.27;;
75156;SDS011;63736;50.076;8.198;2023-02-04T14:30:58;102.50;;;50.40;;
75156;SDS011;63736;50.076;8.198;2023-02-04T14:33:23;97.43;;;48.92;;
75156;SDS011;63736;50.076;8.198;2023-02-04T14:35:48;97.80;;;48.47;;
75156;SDS011;63736;50.076;8.198;2023-02-04T14:38:14;94.33;;;47.93;;
75156;SDS011;63736;50.076;8.198;2023-02-04T14:40:40;86.97;;;46.33;;
75156;SDS011;63736;50.076;8.198;2023-02-04T14:43:06;80.97;;;44.13;;
75156;SDS011;63736;50.076;8.198;2023-02-04T14:45:32;78.65;;;42.83;;
75156;SDS011;63736;50.076;8.198;2023-02-04T14:47:58;71.70;;;42.40;;